Dutch Harbor, AK

4:47 PM AKDT on August 20, 2014 (GMT -0800)
Dutch Harbor | Change Station
CLOSE
Current Station
Airport
Location: Dutch Harbor,
Elevation: 13 ft
Nearby Weather Stations

Elev 13 ft 53.90 °N, 166.54 °W | Updated 51 minutes ago

Mostly Cloudy
Mostly Cloudy
58 °F
Feels Like 58 °F
N
8
Wind Variable Wind from SE

Today
High -- | Low -- °F
--% Chance of Precip.
Yesterday
High -- | Low -- °F
Precip. -- in
7:56 AM 10:24 PM
Waning Crescent, 18% visible
Pressure 30.15 in
Visibility 10.0 miles
Clouds Scattered Clouds 2400 ft
Mostly Cloudy 2900 ft
Mostly Cloudy 4800 ft
Dew Point 48 °F
Humidity 70%
Rainfall 0.00 in
Snow Depth Not available.
UV 4 out of 12
Pollen Not available.
Air Quality Not available.
Flu Activity Not available.
METAR PADU 202356Z 13007KT 10SM SCT024 BKN029 BKN048 14/09 A3013 RMK AO2 SLP209 MH 60000 T01440089 10150 20106 58004

More Conditions Fewer Conditions

Pressure 30.15 in
Visibility 10.0 miles
Clouds Scattered Clouds 2400 ft
Mostly Cloudy 2900 ft
Mostly Cloudy 4800 ft
Dew Point 48 °F
Humidity 70%
Rainfall 0.00 in
Snow Depth Not available.
UV 4 out of 12
Pollen Not available.
Air Quality Not available.
Flu Activity Not available.
METAR PADU 202356Z 13007KT 10SM SCT024 BKN029 BKN048 14/09 A3013 RMK AO2 SLP209 MH 60000 T01440089 10150 20106 58004

More Conditions Fewer Conditions

10-Day Weather Forecast

Almanac

Astronomy

Aug. 20, 2014 Rise Set
Actual Time 7:56 AM AKDT 10:24 PM AKDT
Civil Twilight 7:17 AM AKDT 11:03 PM AKDT
Nautical Twilight 6:27 AM AKDT 11:52 PM AKDT
Astronomical Twilight 5:27 AM AKDT 12:52 AM AKDT
Moon 3:30 AM AKDT (8/20) 7:34 PM AKDT (8/20)
Length of Visible Light 15h 45m
Length of Day
14h 28m
Tomorrow will be 4m 0s shorter.
Waning Crescent, 18% of the Moon is Illuminated
Today
Waning Crescent
Aug 25
New
Sep 2
First Quarter
Sep 8
Full
Sep 15
Last Quarter

Today's Extremes

State Highs State Lows

Community

WunderPhotos

Upload Photos

1,745,823 photos uploaded!

WunderBlogs® & News

Nearby

Snow Depth

Station Depth Elevation
Mcneil Canyon 1 in 1320 ft
MF Bradley River 320 in 2300 ft
Rocky Point 4 in 500 ft
Cooper Lake 35 in 1200 ft
Grouse Creek Divide 0 in 700 ft

Earthquake Activity

City Distance Mag. Time & Date
No recent earthquake activity has been reported nearby.
Minimum magnitude displayed is 2.5.

Coastal Water Temperatures

Place Temperature
No Stations Reporting

Nearby Weather Stations